2002 PHANFONE (2002222N09163)


On this page: IBTrACS data - Map and Plots - Positions - Intensities - Original source data

Summary

Start Aug 10
End Aug 25
Basins EP
WP
LMI 135 kt
Sources jtwc_wp
tokyo
cma
hko
In WMO? Yes
Previous storm 2002 CRISTOBAL (NA)
Previous in basin 2002 MISSING (WP)
Concurrent storms 2002 PHANFONE (WP)
2002 TD0811 (WP)
2002 VONGFONG (WP)
2002 ALIKA (EP)
2002 FAUSTO (EP)
2002 RUSA (WP)
2002 ELE (EP)
Next in basin 2002 TD0811 (WP)
Next storm 2002 TD0811 (WP)

top of page IBTrACS Data: File Access

top of page HURSAT Data: File Access

Image of storm

top of page Plots:

Map of storm track will not appear if FTP is down
Time series of cyclone Maximum Sustained Wind will not appear if FTP is down
Time series of cyclone Minimum Central Pressure will not appear if FTP is down

top of page Track Data:Position

jtwc_wp tokyo cma hko
Date Lat Lon Lat Lon Lat Lon Lat Lon
2002-08-10 06:00:00 9.1 162.7
2002-08-10 12:00:00 9.2 161.9
2002-08-10 18:00:00 9.7 160.9
2002-08-11 00:00:00 10.2 160.0 8.9 160.5 8.9 160.5
2002-08-11 06:00:00 10.3 159.2 9.7 159.3 9.7 159.3
2002-08-11 12:00:00 10.3 158.5 10.1 158.5 10.1 158.5 10.2 158.6
2002-08-11 18:00:00 10.5 158.1 10.2 158.4 10.1 158.5 10.4 158.4
2002-08-12 00:00:00 10.9 157.8 10.6 158.2 10.7 158.1 10.6 158.2
2002-08-12 06:00:00 11.5 157.6 11.2 158.0 11.2 157.8 11.2 157.8
2002-08-12 12:00:00 12.0 157.5 11.9 157.5 11.9 157.5 11.9 157.5
2002-08-12 18:00:00 12.7 157.3 12.5 157.3 12.6 157.3 12.7 157.3
2002-08-13 00:00:00 14.0 156.8 14.0 156.9 14.0 157.0 14.0 157.0
2002-08-13 06:00:00 15.5 156.0 15.5 156.2 15.4 156.1 15.4 156.1
2002-08-13 12:00:00 16.6 154.9 16.5 154.6 16.5 154.8 16.5 154.8
2002-08-13 18:00:00 17.5 153.7 17.1 153.7 17.3 153.7 17.4 153.6
2002-08-14 00:00:00 18.4 152.2 18.3 152.3 18.3 152.3 18.3 152.2
2002-08-14 06:00:00 19.0 150.7 19.1 150.6 19.0 150.7 18.9 150.6
2002-08-14 12:00:00 19.5 149.2 19.4 149.2 19.4 149.4 19.5 149.3
2002-08-14 18:00:00 20.1 148.3 20.2 148.1 20.1 148.2 20.2 148.1
2002-08-15 00:00:00 21.2 146.9 21.1 146.9 21.1 146.9 21.1 146.9
2002-08-15 06:00:00 22.0 145.7 22.0 145.6 22.0 145.7 22.0 145.7
2002-08-15 12:00:00 22.9 144.6 22.8 144.6 22.9 144.6 22.9 144.4
2002-08-15 18:00:00 23.9 143.3 23.9 143.3 23.9 143.3 23.8 143.2
2002-08-16 00:00:00 24.8 142.0 24.7 142.1 24.7 142.1 24.6 142.0
2002-08-16 06:00:00 25.4 141.0 25.4 141.0 25.4 141.0 25.4 141.0
jtwc_wp tokyo cma hko
2002-08-16 12:00:00 25.9 140.2 26.0 140.1 26.0 140.1 26.0 140.1
2002-08-16 18:00:00 26.8 139.4 26.8 139.4 26.8 139.4 26.8 139.4
2002-08-17 00:00:00 27.6 138.7 27.6 138.8 27.6 138.8 27.6 138.8
2002-08-17 06:00:00 28.5 138.1 28.5 138.2 28.5 138.2 28.5 138.2
2002-08-17 12:00:00 29.5 137.6 29.4 137.7 29.6 137.7 29.4 137.7
2002-08-17 18:00:00 30.2 137.1 30.3 137.2 30.2 137.1 30.3 137.2
2002-08-18 00:00:00 30.6 136.8 30.8 136.6 30.7 136.7 30.7 136.7
2002-08-18 06:00:00 31.1 136.5 31.1 136.5 31.1 136.5 31.1 136.5
2002-08-18 12:00:00 31.5 137.0 31.4 137.0 31.4 137.0 31.5 136.9
2002-08-18 18:00:00 31.8 137.7 31.8 137.6 31.8 137.6 31.9 137.8
2002-08-19 00:00:00 32.2 138.7 32.3 138.9 32.3 139.0 32.3 138.8
2002-08-19 06:00:00 32.7 139.7 32.7 139.8 32.7 139.8 32.7 139.8
2002-08-19 12:00:00 33.2 141.1 33.3 140.8 33.3 141.0 33.2 141.1
2002-08-19 18:00:00 33.5 142.6 33.6 143.0 33.6 143.0 33.6 143.0
2002-08-20 00:00:00 34.2 145.4 34.3 146.1 34.3 146.2 34.3 146.1
2002-08-20 06:00:00 36.0 148.8 36.2 149.1 36.0 149.0 36.2 149.1
2002-08-20 12:00:00 38.2 152.5 38.4 152.4 38.4 152.4
2002-08-20 18:00:00 41.9 153.3 42.0 153.3
2002-08-21 00:00:00 43.9 151.6 44.0 151.8
2002-08-21 06:00:00 44.1 151.9
2002-08-21 12:00:00 44.5 151.6
2002-08-21 18:00:00 44.8 152.0
2002-08-22 00:00:00 44.9 152.5
2002-08-22 06:00:00 44.9 154.1
jtwc_wp tokyo cma hko
2002-08-22 12:00:00 45.6 156.3
2002-08-22 18:00:00 47.1 158.0
2002-08-23 00:00:00 47.3 160.5
2002-08-23 06:00:00 48.1 162.2
2002-08-23 12:00:00 48.9 164.5
2002-08-23 18:00:00 49.3 167.7
2002-08-24 00:00:00 49.5 171.2
2002-08-24 06:00:00 49.8 175.6
2002-08-24 12:00:00 50.9 178.4
2002-08-24 18:00:00 50.9 179.3
2002-08-25 00:00:00 50.2 181.5

top of pageTrack Data:Intensity

jtwc_wp tokyo cma hko
Date Wind Pres Wind Pres Wind Pres Wind Pres
2002-08-10 06:00:00 20. 1004.
2002-08-10 12:00:00 20. 1004.
2002-08-10 18:00:00 20. 1004.
2002-08-11 00:00:00 25. 1002. 1004. 23. 1004.
2002-08-11 06:00:00 25. 1002. 1002. 29. 1002.
2002-08-11 12:00:00 30. 1000. 1002. 29. 1002. 25. 1002.
2002-08-11 18:00:00 40. 994. 1000. 29. 1000. 30. 1000.
2002-08-12 00:00:00 40. 994. 35. 998. 35. 998. 35. 996.
2002-08-12 06:00:00 45. 991. 40. 992. 39. 995. 40. 992.
2002-08-12 12:00:00 55. 984. 45. 990. 39. 995. 45. 990.
2002-08-12 18:00:00 55. 984. 50. 985. 45. 990. 50. 985.
2002-08-13 00:00:00 60. 980. 55. 980. 54. 985. 55. 980.
2002-08-13 06:00:00 65. 976. 55. 980. 54. 985. 55. 980.
2002-08-13 12:00:00 70. 972. 60. 975. 58. 980. 60. 975.
2002-08-13 18:00:00 75. 967. 60. 975. 58. 980. 60. 975.
2002-08-14 00:00:00 75. 967. 65. 970. 64. 975. 65. 970.
2002-08-14 06:00:00 80. 963. 70. 965. 68. 970. 70. 965.
2002-08-14 12:00:00 85. 958. 70. 965. 78. 965. 75. 960.
2002-08-14 18:00:00 90. 954. 70. 965. 78. 965. 75. 960.
2002-08-15 00:00:00 100. 944. 75. 960. 78. 960. 80. 955.
2002-08-15 06:00:00 115. 927. 80. 950. 78. 960. 85. 950.
2002-08-15 12:00:00 130. 910. 85. 945. 87. 950. 90. 945.
2002-08-15 18:00:00 135. 904. 85. 945. 87. 950. 90. 945.
2002-08-16 00:00:00 130. 910. 85. 945. 87. 950. 90. 945.
2002-08-16 06:00:00 130. 910. 85. 940. 87. 950. 90. 945.
jtwc_wp tokyo cma hko
2002-08-16 12:00:00 130. 910. 85. 945. 87. 950. 90. 945.
2002-08-16 18:00:00 120. 922. 80. 945. 87. 950. 90. 945.
2002-08-17 00:00:00 115. 922. 80. 945. 87. 950. 85. 950.
2002-08-17 06:00:00 115. 927. 80. 945. 87. 950. 85. 950.
2002-08-17 12:00:00 115. 927. 80. 945. 87. 950. 85. 950.
2002-08-17 18:00:00 110. 933. 80. 945. 87. 950. 85. 950.
2002-08-18 00:00:00 105. 938. 80. 945. 87. 950. 80. 955.
2002-08-18 06:00:00 100. 944. 80. 945. 87. 950. 80. 955.
2002-08-18 12:00:00 90. 954. 75. 955. 78. 960. 75. 960.
2002-08-18 18:00:00 90. 954. 75. 955. 78. 960. 75. 960.
2002-08-19 00:00:00 85. 958. 70. 960. 68. 965. 70. 965.
2002-08-19 06:00:00 75. 967. 65. 965. 64. 970. 70. 965.
2002-08-19 12:00:00 65. 976. 65. 970. 64. 970. 65. 970.
2002-08-19 18:00:00 55. 984. 60. 975. 54. 980. 60. 975.
2002-08-20 00:00:00 50. 987. 60. 975. 54. 980. 55. 980.
2002-08-20 06:00:00 50. 987. 60. 975. 54. 980. 50. 985.
2002-08-20 12:00:00 35. 997. 60. 975. 54. 980.
2002-08-20 18:00:00 60. 970. 54. 975.
2002-08-21 00:00:00 970. 54. 975.
2002-08-21 06:00:00 972.
2002-08-21 12:00:00 976.
2002-08-21 18:00:00 980.
2002-08-22 00:00:00 982.
2002-08-22 06:00:00 984.
jtwc_wp tokyo cma hko
2002-08-22 12:00:00 986.
2002-08-22 18:00:00 990.
2002-08-23 00:00:00 994.
2002-08-23 06:00:00 996.
2002-08-23 12:00:00 998.
2002-08-23 18:00:00 1000.
2002-08-24 00:00:00 1000.
2002-08-24 06:00:00 998.
2002-08-24 12:00:00 998.
2002-08-24 18:00:00 998.
2002-08-25 00:00:00 998.

top of page Links to source data

Source Source file Format
jtwc_wp bwp192002.txt ATCF
tokyo bst_all.txt:Line=51645:PHANFONE:213 JMA text table
cma CH2002BST.txt:Storm=16:Phanfone CMA text table
hko tc-besttrack-data.txt:Line=29485:PHANFONE HKO Text table